Time;durP1;ratioP1;P1;durP2;ratioP2;P2;SDS_P1;SDS_P2;PMS_P1;PMS_P2;Temp;Humidity;BMP_temperature;BMP_pressure;BME280_temperature;BME280_humidity;BME280_pressure;Samples;Min_cycle;Max_cycle;Signal;HPM_P1;HPM_P2
2023/01/12 00:01:21;;;;;;;4.80;1.88;;;7.60;99.90;;;;;;5074756;28;20055;-83
2023/01/12 00:03:48;;;;;;;6.40;3.03;;;7.70;99.90;;;;;;5077914;28;20029;-76
2023/01/12 00:06:14;;;;;;;6.63;1.95;;;7.60;99.90;;;;;;5075765;28;20048;-80
2023/01/12 00:08:40;;;;;;;3.25;1.40;;;7.60;99.90;;;;;;5077169;28;20149;-81
2023/01/12 00:11:06;;;;;;;5.13;1.52;;;7.60;99.90;;;;;;5060731;28;20068;-80
2023/01/12 00:13:32;;;;;;;3.50;1.15;;;7.70;99.90;;;;;;5075355;28;20041;-78
2023/01/12 00:18:44;;;;;;;4.22;1.38;;;7.70;99.90;;;;;;5074329;28;20139;-80
2023/01/12 00:21:10;;;;;;;3.75;1.48;;;7.70;99.90;;;;;;5059805;28;20053;-79
2023/01/12 00:23:36;;;;;;;3.92;1.50;;;7.80;99.90;;;;;;5075220;28;20056;-79
2023/01/12 00:26:02;;;;;;;4.07;1.77;;;7.70;99.90;;;;;;5058403;28;20586;-76
2023/01/12 00:28:28;;;;;;;6.07;1.73;;;7.80;99.90;;;;;;5077825;28;20068;-77
2023/01/12 00:31:02;;;;;;;4.30;1.70;;;7.70;99.90;;;;;;5074046;28;20101;-77
2023/01/12 00:33:28;;;;;;;8.40;2.90;;;7.70;99.90;;;;;;5059701;28;20068;-78
2023/01/12 00:35:54;;;;;;;7.85;3.10;;;7.70;99.90;;;;;;5074315;28;20083;-80
2023/01/12 00:38:19;;;;;;;7.30;2.50;;;7.70;99.90;;;;;;5060108;28;20512;-77
2023/01/12 00:40:45;;;;;;;11.30;3.40;;;7.70;99.90;;;;;;5076382;28;20060;-78
2023/01/12 00:45:55;;;;;;;9.10;3.65;;;7.80;99.90;;;;;;5077275;28;20484;-74
2023/01/12 00:48:21;;;;;;;6.28;2.65;;;7.80;99.90;;;;;;5074686;28;20045;-77
2023/01/12 00:50:47;;;;;;;9.25;2.28;;;7.70;99.90;;;;;;5061035;28;20076;-77
2023/01/12 00:53:13;;;;;;;7.90;2.65;;;7.70;99.90;;;;;;5073175;28;20044;-79
2023/01/12 00:55:39;;;;;;;9.52;2.60;;;7.70;99.90;;;;;;5074957;28;20044;-77
2023/01/12 00:58:05;;;;;;;5.55;2.00;;;7.70;99.90;;;;;;5076438;28;20037;-78
2023/01/12 01:00:30;;;;;;;5.82;2.75;;;7.70;99.90;;;;;;5076106;28;20109;-83
2023/01/12 01:02:57;;;;;;;7.30;2.63;;;7.80;99.90;;;;;;5077928;28;20068;-77
2023/01/12 01:05:22;;;;;;;8.82;2.40;;;7.80;99.90;;;;;;5077444;28;20512;-81
2023/01/12 01:07:48;;;;;;;5.13;1.73;;;7.90;99.90;;;;;;5080645;28;20055;-75
2023/01/12 01:10:15;;;;;;;5.25;2.20;;;7.90;99.90;;;;;;5061136;28;20447;-79
2023/01/12 01:12:41;;;;;;;6.70;2.38;;;7.90;99.90;;;;;;5079700;28;20052;-79
2023/01/12 01:15:08;;;;;;;5.18;2.22;;;7.90;99.90;;;;;;5062808;28;20051;-76
2023/01/12 01:17:33;;;;;;;7.35;2.22;;;7.90;99.90;;;;;;5080149;28;20086;-75
2023/01/12 01:20:00;;;;;;;6.80;2.58;;;7.80;99.90;;;;;;5063357;28;20048;-80
2023/01/12 01:22:26;;;;;;;6.80;2.75;;;7.80;99.90;;;;;;5077821;28;20131;-77
2023/01/12 01:24:52;;;;;;;7.10;2.60;;;7.80;99.90;;;;;;5078919;28;20059;-76
2023/01/12 01:27:17;;;;;;;9.75;2.92;;;7.80;99.90;;;;;;5077134;28;20036;-80
2023/01/12 01:29:43;;;;;;;8.13;2.67;;;7.80;99.90;;;;;;5080010;28;20044;-76
2023/01/12 01:32:09;;;;;;;6.13;1.77;;;7.90;99.90;;;;;;5078551;28;20091;-75
2023/01/12 01:34:35;;;;;;;7.25;2.15;;;7.90;99.90;;;;;;5078373;28;20073;-76
2023/01/12 01:37:00;;;;;;;5.88;2.10;;;7.90;99.90;;;;;;5081202;28;20056;-76
2023/01/12 01:39:26;;;;;;;5.65;2.22;;;7.90;99.90;;;;;;5044701;28;20045;-74
2023/01/12 01:41:52;;;;;;;6.82;2.88;;;7.90;99.90;;;;;;5079796;28;20056;-78
2023/01/12 01:44:30;;;;;;;3.38;1.77;;;8.00;99.90;;;;;;5060678;28;20064;-76
2023/01/12 01:47:00;;;;;;;7.82;2.58;;;8.00;99.90;;;;;;5079304;28;20075;-75
2023/01/12 01:49:41;;;;;;;6.93;2.67;;;8.00;99.90;;;;;;5062582;28;20052;-76
2023/01/12 01:52:15;;;;;;;7.03;2.42;;;7.90;99.90;;;;;;5077225;28;20052;-75
2023/01/12 01:54:46;;;;;;;6.65;2.65;;;7.90;99.90;;;;;;5079927;28;20052;-79
2023/01/12 01:57:14;;;;;;;8.18;2.78;;;8.00;99.90;;;;;;5074854;28;20052;-79
2023/01/12 01:59:44;;;;;;;8.15;2.97;;;7.90;99.90;;;;;;5080798;28;20048;-78
2023/01/12 02:02:11;;;;;;;7.72;2.97;;;7.90;99.90;;;;;;5061643;28;20048;-78
2023/01/12 02:04:37;;;;;;;7.03;3.05;;;7.90;99.90;;;;;;5060624;28;20048;-78
2023/01/12 02:07:05;;;;;;;9.98;3.17;;;8.00;99.90;;;;;;5078716;28;20052;-77
2023/01/12 02:09:31;;;;;;;6.47;2.60;;;7.90;99.90;;;;;;5077684;28;20052;-78
2023/01/12 02:17:42;;;;;;;9.60;3.88;;;8.00;99.90;;;;;;5061735;28;20088;-78
2023/01/12 02:20:10;;;;;;;8.82;2.80;;;8.00;99.90;;;;;;5079223;28;20053;-77
2023/01/12 02:22:42;;;;;;;8.48;3.35;;;8.00;99.90;;;;;;5076551;28;20044;-75
2023/01/12 02:25:36;;;;;;;8.60;2.53;;;7.90;99.90;;;;;;5078914;28;20537;-77
2023/01/12 02:28:54;;;;;;;6.50;2.58;;;7.90;99.90;;;;;;5076790;28;20100;-78
2023/01/12 02:31:58;;;;;;;9.25;3.28;;;7.80;99.90;;;;;;5076114;28;20051;-78
2023/01/12 02:34:33;;;;;;;7.55;2.90;;;7.80;99.90;;;;;;5079510;28;20079;-77
2023/01/12 02:37:33;;;;;;;9.90;3.58;;;7.90;99.90;;;;;;5079788;28;20049;-76
2023/01/12 02:40:08;;;;;;;8.13;3.53;;;7.90;99.90;;;;;;5057566;28;20060;-77
2023/01/12 02:42:49;;;;;;;8.93;3.38;;;7.90;99.90;;;;;;5061986;28;20041;-79
2023/01/12 02:45:29;;;;;;;11.25;4.13;;;7.90;99.90;;;;;;5078144;28;20048;-80
2023/01/12 02:48:02;;;;;;;17.63;4.72;;;8.00;99.90;;;;;;5076686;28;20052;-77
2023/01/12 02:50:34;;;;;;;9.60;3.17;;;8.00;99.90;;;;;;5078566;28;20059;-75
2023/01/12 02:53:14;;;;;;;10.55;3.80;;;8.00;99.90;;;;;;5076357;28;20044;-74
2023/01/12 02:55:41;;;;;;;8.68;3.60;;;8.00;99.90;;;;;;5078022;28;20622;-75
2023/01/12 02:58:10;;;;;;;9.00;3.42;;;7.90;99.90;;;;;;5078067;28;20043;-78
2023/01/12 03:00:38;;;;;;;9.20;3.85;;;7.90;99.90;;;;;;5076191;28;20078;-75
2023/01/12 03:03:05;;;;;;;12.77;3.78;;;7.90;99.90;;;;;;5078529;28;20044;-75
2023/01/12 03:05:31;;;;;;;8.43;4.30;;;7.90;99.90;;;;;;5059502;28;20063;-77
2023/01/12 03:08:03;;;;;;;7.05;3.67;;;7.90;99.90;;;;;;5078263;28;20054;-75
2023/01/12 03:10:43;;;;;;;8.13;3.80;;;7.90;99.90;;;;;;5077804;28;20056;-77
2023/01/12 03:13:13;;;;;;;8.70;4.40;;;7.90;99.90;;;;;;5076713;28;20053;-77
2023/01/12 03:15:44;;;;;;;6.93;3.70;;;7.70;99.90;;;;;;5078176;28;20072;-80
2023/01/12 03:18:34;;;;;;;8.80;3.97;;;7.90;99.90;;;;;;5075703;28;20041;-77
2023/01/12 03:21:15;;;;;;;10.65;4.25;;;7.90;99.90;;;;;;5073007;28;20056;-78
2023/01/12 03:23:46;;;;;;;7.15;3.10;;;7.90;99.90;;;;;;5077320;28;20060;-77
2023/01/12 03:26:16;;;;;;;7.32;3.63;;;7.90;99.90;;;;;;5077690;28;20040;-76
2023/01/12 03:28:47;;;;;;;8.43;3.58;;;7.90;99.90;;;;;;5077827;28;20063;-80
2023/01/12 03:31:14;;;;;;;5.78;3.70;;;8.00;99.90;;;;;;5075322;28;20068;-80
2023/01/12 03:33:42;;;;;;;6.45;3.85;;;8.00;99.90;;;;;;5079345;28;20066;-85
2023/01/12 03:36:27;;;;;;;6.90;3.55;;;8.00;99.90;;;;;;5075854;28;20063;-80
2023/01/12 03:39:15;;;;;;;6.65;3.78;;;8.10;99.90;;;;;;5077662;28;20084;-77
2023/01/12 03:41:56;;;;;;;7.30;3.88;;;8.00;99.90;;;;;;5061298;28;20052;-78
2023/01/12 03:44:39;;;;;;;7.72;3.83;;;8.00;99.90;;;;;;5075624;28;20123;-82
2023/01/12 03:47:13;;;;;;;8.48;3.42;;;8.00;99.90;;;;;;5077309;28;20068;-78
2023/01/12 03:50:15;;;;;;;7.65;4.03;;;7.90;99.90;;;;;;5076069;28;20045;-77
2023/01/12 03:52:43;;;;;;;7.78;3.88;;;8.00;99.90;;;;;;5048760;28;20505;-82
2023/01/12 03:55:12;;;;;;;7.43;3.70;;;8.00;99.90;;;;;;5077160;28;20060;-81
2023/01/12 03:57:39;;;;;;;9.57;4.82;;;8.00;99.90;;;;;;5059559;28;20495;-79
2023/01/12 04:00:06;;;;;;;7.28;3.17;;;8.00;99.90;;;;;;5077159;28;20076;-79
2023/01/12 04:02:32;;;;;;;6.00;3.33;;;8.00;99.90;;;;;;5077226;28;20053;-80
2023/01/12 04:04:58;;;;;;;4.72;2.78;;;8.00;99.90;;;;;;5058514;28;20140;-81
2023/01/12 04:07:24;;;;;;;6.50;2.83;;;8.00;99.90;;;;;;5077515;28;20041;-78
2023/01/12 04:09:49;;;;;;;3.80;1.92;;;8.10;99.90;;;;;;5074839;28;20079;-85
2023/01/12 04:12:15;;;;;;;5.53;2.47;;;8.20;99.90;;;;;;5077558;28;20052;-80
2023/01/12 04:14:43;;;;;;;6.00;2.85;;;8.10;99.90;;;;;;5058930;28;20098;-87
2023/01/12 04:17:12;;;;;;;4.75;2.88;;;8.10;99.90;;;;;;5060165;28;20044;-83
2023/01/12 04:19:38;;;;;;;6.10;2.67;;;8.10;99.90;;;;;;5077095;28;20049;-81
2023/01/12 04:24:48;;;;;;;3.28;2.00;;;8.20;99.90;;;;;;5077081;28;20082;-81
2023/01/12 04:27:15;;;;;;;4.47;2.00;;;8.20;99.90;;;;;;5075288;28;20052;-77
2023/01/12 04:29:41;;;;;;;4.03;1.67;;;8.10;99.90;;;;;;5077136;28;20045;-80
2023/01/12 04:32:07;;;;;;;5.97;2.72;;;8.10;99.90;;;;;;5075872;28;20112;-79
2023/01/12 04:34:32;;;;;;;4.65;1.98;;;8.20;99.90;;;;;;5075921;28;20116;-80
2023/01/12 04:37:00;;;;;;;2.92;1.80;;;8.20;99.90;;;;;;5060707;28;20089;-80
2023/01/12 04:39:26;;;;;;;4.72;2.20;;;8.20;99.90;;;;;;5073958;28;20040;-79
2023/01/12 04:41:52;;;;;;;6.32;2.17;;;8.20;99.90;;;;;;5081216;28;20693;-85
2023/01/12 04:44:18;;;;;;;3.85;2.10;;;8.20;99.90;;;;;;5061730;28;20060;-81
2023/01/12 04:46:44;;;;;;;2.50;1.50;;;8.20;99.90;;;;;;5082317;28;20055;-86
2023/01/12 04:49:09;;;;;;;4.32;1.60;;;8.20;99.90;;;;;;5079659;28;20041;-80
2023/01/12 04:51:35;;;;;;;4.88;1.70;;;8.20;99.90;;;;;;5079833;28;20060;-82
2023/01/12 04:54:01;;;;;;;4.93;1.80;;;8.20;99.90;;;;;;5064104;28;20040;-83
2023/01/12 04:56:26;;;;;;;2.65;1.40;;;8.20;99.90;;;;;;5076250;28;20083;-83
2023/01/12 04:58:59;;;;;;;2.95;1.50;;;8.10;99.90;;;;;;5080851;28;20057;-81
2023/01/12 05:01:27;;;;;;;2.38;1.20;;;8.20;99.90;;;;;;5061734;28;20104;-86
2023/01/12 05:03:59;;;;;;;2.35;1.23;;;8.10;99.90;;;;;;5080804;28;20100;-81
2023/01/12 05:06:26;;;;;;;3.35;1.45;;;8.10;99.90;;;;;;5079945;28;20047;-81
2023/01/12 05:11:36;;;;;;;3.33;1.20;;;8.00;99.90;;;;;;5080804;28;20049;-81
2023/01/12 05:14:02;;;;;;;3.78;1.35;;;8.00;99.90;;;;;;5079677;28;20051;-79
2023/01/12 05:16:28;;;;;;;3.83;1.35;;;8.00;99.90;;;;;;5080609;28;20386;-83
2023/01/12 05:18:54;;;;;;;3.90;1.45;;;8.00;99.90;;;;;;5078410;28;20465;-84
2023/01/12 05:21:22;;;;;;;3.38;1.33;;;8.00;99.90;;;;;;5080037;28;20047;-83
2023/01/12 05:23:51;;;;;;;3.08;1.10;;;8.00;99.90;;;;;;5079721;28;20195;-77
2023/01/12 05:26:17;;;;;;;3.28;1.17;;;8.00;99.90;;;;;;5079013;28;20083;-79
2023/01/12 05:28:45;;;;;;;3.28;1.35;;;8.00;99.90;;;;;;5079397;28;20049;-84
2023/01/12 05:31:12;;;;;;;3.08;1.08;;;8.00;99.90;;;;;;5076418;28;20055;-83
2023/01/12 05:33:40;;;;;;;3.05;1.10;;;8.00;99.90;;;;;;5079028;28;20057;-86
2023/01/12 05:36:09;;;;;;;1.77;0.80;;;8.00;99.90;;;;;;5060751;28;20048;-78
2023/01/12 05:38:35;;;;;;;3.15;1.20;;;7.90;99.90;;;;;;5079496;28;20084;-83
2023/01/12 05:41:02;;;;;;;3.75;1.10;;;7.90;99.90;;;;;;5063325;28;20768;-88
2023/01/12 05:46:13;;;;;;;2.25;0.90;;;7.90;99.90;;;;;;5081988;28;20052;-80
2023/01/12 05:48:39;;;;;;;2.03;1.00;;;7.90;99.90;;;;;;5079400;28;20040;-79
2023/01/12 05:51:07;;;;;;;3.42;1.08;;;8.00;99.90;;;;;;5080619;28;20075;-79
2023/01/12 05:53:32;;;;;;;2.13;0.93;;;7.90;99.90;;;;;;5080204;28;20056;-78
2023/01/12 05:56:04;;;;;;;3.67;1.25;;;7.90;99.90;;;;;;5079051;28;20103;-84
2023/01/12 05:58:30;;;;;;;3.90;1.30;;;7.90;99.90;;;;;;5080182;28;20045;-78
2023/01/12 06:00:56;;;;;;;2.88;1.52;;;8.00;99.90;;;;;;5078509;28;20413;-82
2023/01/12 06:03:21;;;;;;;1.70;0.73;;;8.00;99.90;;;;;;5079950;28;20045;-83
2023/01/12 06:05:54;;;;;;;3.10;1.13;;;8.00;99.90;;;;;;5078227;28;20139;-82
2023/01/12 06:08:20;;;;;;;4.85;1.38;;;8.00;99.90;;;;;;5078470;28;20052;-78
2023/01/12 06:10:46;;;;;;;4.55;1.50;;;8.00;99.90;;;;;;5078016;28;20048;-84
2023/01/12 06:16:04;;;;;;;3.78;1.10;;;8.00;99.90;;;;;;5059563;28;20056;-83
2023/01/12 06:18:38;;;;;;;3.55;1.15;;;8.00;99.90;;;;;;5090337;28;20059;-84
2023/01/12 06:21:06;;;;;;;3.15;1.20;;;8.10;99.90;;;;;;5059038;28;20045;-81
2023/01/12 06:23:32;;;;;;;3.63;1.20;;;8.10;99.90;;;;;;5051664;28;20068;-82
2023/01/12 06:26:03;;;;;;;3.83;1.40;;;8.10;99.90;;;;;;5077512;28;20056;-80
2023/01/12 06:28:29;;;;;;;2.92;1.60;;;8.10;99.90;;;;;;5079123;28;20087;-82
2023/01/12 06:31:00;;;;;;;2.75;1.52;;;8.10;99.90;;;;;;5060107;28;20423;-85
2023/01/12 06:33:27;;;;;;;3.05;1.50;;;8.10;99.90;;;;;;5078610;28;20054;-83
2023/01/12 06:35:54;;;;;;;2.30;1.23;;;8.10;99.90;;;;;;5077290;28;20500;-87
2023/01/12 06:38:22;;;;;;;2.85;1.27;;;8.10;99.90;;;;;;5045467;28;20048;-80
2023/01/12 06:40:47;;;;;;;3.55;1.73;;;8.10;99.90;;;;;;5079768;28;20106;-83
2023/01/12 06:43:13;;;;;;;3.10;1.17;;;8.10;99.90;;;;;;5077305;28;20595;-84
2023/01/12 06:45:39;;;;;;;3.47;2.15;;;8.20;99.90;;;;;;5062154;28;20059;-82
2023/01/12 06:48:05;;;;;;;4.05;1.30;;;8.20;99.90;;;;;;5059833;28;20098;-85
2023/01/12 06:50:32;;;;;;;2.55;1.33;;;8.20;99.90;;;;;;5078525;28;20123;-86
2023/01/12 06:53:02;;;;;;;2.53;1.20;;;8.20;99.90;;;;;;5078035;28;20091;-80
2023/01/12 06:55:28;;;;;;;3.38;1.10;;;8.20;99.90;;;;;;5078110;28;20551;-82
2023/01/12 06:57:54;;;;;;;3.35;1.20;;;8.30;99.90;;;;;;5061501;28;20052;-86
2023/01/12 07:00:20;;;;;;;3.05;1.30;;;8.30;99.90;;;;;;5076662;28;20044;-83
2023/01/12 07:02:50;;;;;;;3.45;1.10;;;8.30;99.90;;;;;;5078663;28;20055;-82
2023/01/12 07:05:16;;;;;;;1.95;1.13;;;8.30;99.90;;;;;;5075971;28;20053;-84
2023/01/12 07:07:42;;;;;;;2.50;1.40;;;8.40;99.90;;;;;;5078013;28;20101;-83
2023/01/12 07:10:12;;;;;;;3.00;1.23;;;8.40;99.90;;;;;;5076113;28;20055;-86
2023/01/12 07:12:38;;;;;;;3.42;1.30;;;8.50;99.90;;;;;;5061291;28;20052;-83
2023/01/12 07:15:04;;;;;;;2.38;1.20;;;8.50;99.90;;;;;;5078239;28;20060;-83
2023/01/12 07:17:30;;;;;;;2.78;1.30;;;8.50;99.90;;;;;;5074140;28;20055;-87
2023/01/12 07:19:56;;;;;;;1.85;1.30;;;8.50;99.90;;;;;;5077734;28;20048;-85
2023/01/12 07:22:22;;;;;;;2.20;0.98;;;8.50;99.90;;;;;;5058730;28;20581;-83
2023/01/12 07:24:47;;;;;;;2.47;1.08;;;8.60;99.90;;;;;;5061211;28;20069;-81
2023/01/12 07:27:13;;;;;;;1.80;1.00;;;8.60;99.90;;;;;;5075798;28;20530;-85
2023/01/12 07:29:39;;;;;;;2.03;1.13;;;8.60;99.90;;;;;;5077674;28;20056;-79
2023/01/12 07:32:05;;;;;;;6.68;1.48;;;8.60;99.90;;;;;;5076496;28;20127;-79
2023/01/12 07:34:31;;;;;;;2.05;1.10;;;8.60;99.90;;;;;;5039555;28;20037;-84
2023/01/12 07:36:56;;;;;;;1.70;0.90;;;8.60;99.90;;;;;;5042141;28;20040;-82
2023/01/12 07:39:23;;;;;;;2.00;1.30;;;8.60;99.90;;;;;;5073211;28;20159;-84
2023/01/12 07:44:33;;;;;;;3.03;1.30;;;8.70;99.90;;;;;;5093998;28;20064;-83
2023/01/12 07:46:58;;;;;;;4.07;1.38;;;8.70;99.90;;;;;;5090331;28;20053;-83
2023/01/12 07:49:25;;;;;;;3.35;1.17;;;8.80;99.90;;;;;;5065598;28;20068;-82
2023/01/12 07:51:54;;;;;;;2.45;1.20;;;8.80;99.90;;;;;;5058908;28;20059;-83
2023/01/12 07:54:21;;;;;;;2.33;1.23;;;8.80;99.90;;;;;;5077789;28;20048;-82
2023/01/12 07:56:47;;;;;;;1.92;1.20;;;8.80;99.90;;;;;;5075915;28;20041;-83
2023/01/12 07:59:13;;;;;;;3.65;1.65;;;8.70;99.90;;;;;;5077337;28;20063;-84
2023/01/12 08:01:39;;;;;;;2.08;1.33;;;8.70;99.90;;;;;;5058968;28;20058;-82
2023/01/12 08:04:05;;;;;;;2.25;1.30;;;8.70;99.90;;;;;;5077006;28;20052;-84
2023/01/12 08:06:34;;;;;;;2.28;1.17;;;8.80;99.90;;;;;;5076899;28;20048;-81
2023/01/12 08:08:59;;;;;;;2.47;1.30;;;8.80;99.90;;;;;;5074987;28;20045;-82
2023/01/12 08:11:25;;;;;;;3.20;1.52;;;8.80;99.90;;;;;;5079039;28;20055;-82
2023/01/12 08:13:55;;;;;;;2.00;1.30;;;8.80;99.90;;;;;;5076880;28;20051;-83
2023/01/12 08:16:31;;;;;;;3.10;1.55;;;8.80;99.90;;;;;;5081507;28;20044;-85
2023/01/12 08:19:01;;;;;;;2.00;1.30;;;8.80;99.90;;;;;;5079392;28;20115;-81
2023/01/12 08:21:44;;;;;;;2.13;1.48;;;8.80;99.90;;;;;;5063557;28;20134;-82
2023/01/12 08:24:15;;;;;;;2.20;1.50;;;8.80;99.90;;;;;;5080458;28;20060;-80
2023/01/12 08:26:44;;;;;;;3.65;1.30;;;8.90;99.90;;;;;;5079973;28;20094;-81
2023/01/12 08:29:15;;;;;;;2.33;1.33;;;8.80;99.90;;;;;;5081505;28;20310;-84
2023/01/12 08:31:42;;;;;;;4.22;1.55;;;8.80;99.90;;;;;;5079177;28;20055;-83
2023/01/12 08:34:08;;;;;;;2.33;1.65;;;8.80;99.90;;;;;;5080640;28;20052;-85
2023/01/12 08:36:35;;;;;;;2.80;1.40;;;8.90;99.90;;;;;;5064028;28;20059;-84
2023/01/12 08:39:03;;;;;;;2.75;2.03;;;8.90;99.90;;;;;;5062804;28;20404;-81
2023/01/12 08:41:32;;;;;;;2.63;1.60;;;9.00;99.90;;;;;;5080960;28;20477;-83
2023/01/12 08:44:06;;;;;;;2.25;1.60;;;8.90;99.90;;;;;;5078777;28;20055;-84
2023/01/12 08:46:38;;;;;;;3.20;1.70;;;9.00;99.90;;;;;;5081142;28;20052;-82
2023/01/12 08:49:08;;;;;;;2.55;1.83;;;9.00;99.90;;;;;;5063022;28;20056;-83
2023/01/12 08:51:34;;;;;;;3.45;2.03;;;9.10;99.90;;;;;;5079838;28;20538;-84
2023/01/12 08:54:04;;;;;;;2.95;1.90;;;9.10;99.90;;;;;;5080691;28;20496;-82
2023/01/12 08:56:29;;;;;;;2.38;1.40;;;9.00;99.90;;;;;;5078220;28;20052;-80
2023/01/12 08:58:55;;;;;;;3.03;1.60;;;9.10;99.90;;;;;;5082681;28;20128;-87
2023/01/12 09:01:21;;;;;;;4.63;1.92;;;9.10;99.90;;;;;;5061940;28;20032;-83
2023/01/12 09:03:47;;;;;;;3.33;1.80;;;9.10;99.90;;;;;;5081956;28;20413;-85
2023/01/12 09:06:20;;;;;;;2.30;1.30;;;9.10;99.90;;;;;;5079541;28;20061;-84
2023/01/12 09:08:46;;;;;;;3.35;1.75;;;9.20;99.90;;;;;;5079050;28;20049;-83
2023/01/12 09:11:14;;;;;;;3.88;1.88;;;9.30;99.90;;;;;;5080530;28;20302;-82
2023/01/12 09:13:40;;;;;;;4.05;1.55;;;9.30;99.90;;;;;;5079594;28;20044;-84
2023/01/12 09:16:10;;;;;;;5.13;1.80;;;9.30;99.90;;;;;;5080814;28;20056;-79
2023/01/12 09:18:36;;;;;;;3.53;1.70;;;9.40;99.90;;;;;;5078272;28;20049;-83
2023/01/12 09:21:14;;;;;;;3.78;2.40;;;9.40;99.90;;;;;;5063572;28;20127;-81
2023/01/12 09:23:40;;;;;;;3.78;1.90;;;9.50;99.90;;;;;;5080185;28;20097;-84
2023/01/12 09:26:14;;;;;;;5.72;1.80;;;9.50;99.90;;;;;;5079124;28;20108;-86
2023/01/12 09:28:43;;;;;;;4.72;2.03;;;9.50;99.90;;;;;;5080532;28;20188;-84
2023/01/12 09:31:14;;;;;;;5.20;2.17;;;9.60;99.90;;;;;;5061585;28;20051;-85
2023/01/12 09:33:41;;;;;;;4.95;1.90;;;9.70;99.90;;;;;;5063438;28;20052;-82
2023/01/12 09:36:10;;;;;;;4.57;2.20;;;9.70;99.90;;;;;;5078557;28;20041;-85
2023/01/12 09:38:37;;;;;;;4.68;1.98;;;9.70;99.90;;;;;;5062394;28;20044;-82
2023/01/12 09:47:25;;;;;;;5.82;1.90;;;10.00;99.90;;;;;;5078345;28;20049;-86
2023/01/12 09:49:57;;;;;;;5.05;1.88;;;10.00;99.90;;;;;;5081235;28;20049;-84
2023/01/12 09:52:31;;;;;;;10.73;3.22;;;10.10;99.90;;;;;;5077333;28;20139;-85
2023/01/12 09:54:57;;;;;;;7.40;2.30;;;10.10;99.90;;;;;;5079876;28;20465;-84
2023/01/12 09:57:50;;;;;;;8.73;1.90;;;10.20;99.90;;;;;;5077802;28;20053;-85
2023/01/12 10:00:19;;;;;;;8.57;2.60;;;10.20;99.90;;;;;;5078342;28;20477;-86
2023/01/12 10:02:53;;;;;;;6.97;2.72;;;10.20;99.90;;;;;;5079302;28;20101;-86
2023/01/12 10:05:46;;;;;;;11.40;3.10;;;10.30;99.90;;;;;;5077067;28;20052;-86
2023/01/12 10:08:24;;;;;;;10.43;2.78;;;10.30;99.90;;;;;;5061751;28;20060;-85
2023/01/12 10:11:17;;;;;;;10.15;2.15;;;10.30;99.90;;;;;;5061578;28;20052;-85
2023/01/12 10:14:08;;;;;;;8.02;1.90;;;10.30;99.90;;;;;;5077388;28;20496;-84
2023/01/12 10:17:29;;;;;;;13.27;2.70;;;10.30;99.90;;;;;;5078748;28;20041;-85
2023/01/12 10:20:07;;;;;;;11.10;2.88;;;10.40;99.90;;;;;;5027590;28;20092;-83
2023/01/12 10:22:41;;;;;;;10.07;2.40;;;10.40;99.90;;;;;;5060207;28;20487;-86
2023/01/12 10:25:37;;;;;;;7.22;2.03;;;10.40;99.90;;;;;;5078892;28;20063;-85
2023/01/12 10:28:30;;;;;;;12.00;2.75;;;10.40;99.90;;;;;;5078890;28;20055;-86
2023/01/12 10:30:56;;;;;;;10.35;2.70;;;10.50;99.90;;;;;;5076602;28;20132;-83
2023/01/12 10:33:25;;;;;;;11.48;2.42;;;10.50;99.90;;;;;;5078920;28;20112;-84
2023/01/12 10:35:56;;;;;;;7.43;1.35;;;10.60;99.90;;;;;;5076876;28;20051;-83
2023/01/12 10:38:26;;;;;;;6.43;2.00;;;10.90;99.90;;;;;;5076600;28;20064;-85
2023/01/12 10:41:22;;;;;;;6.13;1.67;;;10.60;99.90;;;;;;5077620;28;20060;-85
2023/01/12 10:43:57;;;;;;;9.00;2.00;;;10.60;99.90;;;;;;5046455;28;20061;-84
2023/01/12 10:46:30;;;;;;;5.70;1.70;;;10.60;99.90;;;;;;5077439;28;20053;-84
2023/01/12 10:49:21;;;;;;;7.57;1.80;;;10.60;99.90;;;;;;5072519;28;20045;-83
2023/01/12 10:51:58;;;;;;;6.15;2.13;;;10.70;99.90;;;;;;5071353;28;20051;-84
2023/01/12 10:54:26;;;;;;;6.22;1.90;;;10.70;99.90;;;;;;5077319;28;20066;-85
2023/01/12 10:57:03;;;;;;;6.40;1.60;;;10.70;99.90;;;;;;5075183;28;20041;-84
2023/01/12 10:59:32;;;;;;;5.35;1.38;;;10.70;99.90;;;;;;5078340;28;20050;-83
2023/01/12 11:02:04;;;;;;;7.25;1.95;;;10.70;99.90;;;;;;5060088;28;20549;-83
2023/01/12 11:04:35;;;;;;;5.85;1.30;;;10.70;99.90;;;;;;5076309;28;20044;-85
2023/01/12 11:07:25;;;;;;;4.32;1.10;;;10.70;99.90;;;;;;5078258;28;20060;-85
2023/01/12 11:09:57;;;;;;;5.20;1.30;;;10.70;99.90;;;;;;5076369;28;20044;-83
2023/01/12 11:12:37;;;;;;;5.75;2.15;;;10.80;99.90;;;;;;5060135;28;20518;-84
2023/01/12 11:15:15;;;;;;;7.05;1.90;;;10.80;99.90;;;;;;5077551;28;20056;-82
2023/01/12 11:17:55;;;;;;;3.58;1.17;;;10.80;99.90;;;;;;5059264;28;20142;-80
2023/01/12 11:20:39;;;;;;;8.35;2.00;;;10.80;99.90;;;;;;5077417;28;20415;-82
2023/01/12 11:23:44;;;;;;;6.43;2.00;;;10.90;99.90;;;;;;5075867;28;20124;-82
2023/01/12 11:26:18;;;;;;;8.35;1.88;;;10.90;99.90;;;;;;5055123;28;20048;-84
2023/01/12 11:28:48;;;;;;;4.43;1.73;;;10.90;99.90;;;;;;5057749;28;20053;-80
2023/01/12 11:31:34;;;;;;;9.15;2.33;;;10.90;99.90;;;;;;5038385;28;20052;-81
2023/01/12 11:34:23;;;;;;;5.57;1.77;;;10.90;99.90;;;;;;5040465;28;20056;-83
2023/01/12 11:36:59;;;;;;;8.02;2.25;;;11.00;99.90;;;;;;5040892;28;20048;-84
2023/01/12 11:39:27;;;;;;;6.82;1.88;;;11.00;99.90;;;;;;5055161;28;20040;-86
2023/01/12 11:45:05;;;;;;;9.90;1.70;;;11.00;99.90;;;;;;5076062;28;20048;-86
2023/01/12 11:47:39;;;;;;;8.95;2.10;;;11.10;99.90;;;;;;5058602;28;20531;-84
2023/01/12 11:50:27;;;;;;;8.30;1.90;;;11.10;99.90;;;;;;5077922;28;20177;-86
2023/01/12 11:52:54;;;;;;;7.05;1.88;;;11.10;99.90;;;;;;5075196;28;20057;-85
2023/01/12 11:55:51;;;;;;;8.90;2.33;;;11.10;99.90;;;;;;5077118;28;20078;-85
2023/01/12 11:58:32;;;;;;;8.63;2.15;;;11.00;99.90;;;;;;5060753;28;20052;-85
2023/01/12 12:01:06;;;;;;;6.47;1.90;;;11.00;99.90;;;;;;5075153;28;20053;-85
2023/01/12 12:03:54;;;;;;;7.45;2.05;;;11.00;99.90;;;;;;5076936;28;20048;-82
2023/01/12 12:06:31;;;;;;;11.00;2.20;;;11.10;99.90;;;;;;5076116;28;20052;-85
2023/01/12 12:09:32;;;;;;;7.15;1.83;;;11.10;99.90;;;;;;5058146;28;20135;-87
2023/01/12 12:12:01;;;;;;;7.00;1.92;;;11.20;99.90;;;;;;5075652;28;20052;-82
2023/01/12 12:14:57;;;;;;;5.50;1.55;;;11.10;99.90;;;;;;5074148;28;20051;-85
2023/01/12 12:17:54;;;;;;;9.65;1.77;;;11.20;99.90;;;;;;5075446;28;20052;-82
2023/01/12 12:20:46;;;;;;;;;;;11.20;99.90;;;;;;5061016;28;20488;-85
2023/01/12 12:23:48;;;;;;;7.47;2.03;;;11.20;99.90;;;;;;5035386;28;19924;-83
2023/01/12 12:26:29;;;;;;;7.70;1.52;;;11.20;99.90;;;;;;5088128;28;20052;-84
2023/01/12 12:29:23;;;;;;;7.10;1.90;;;11.20;99.90;;;;;;5057483;28;20133;-84
2023/01/12 12:32:23;;;;;;;6.32;2.00;;;11.20;99.90;;;;;;5071565;28;20064;-85
2023/01/12 12:35:13;;;;;;;6.40;1.83;;;11.20;99.90;;;;;;5055042;28;20068;-84
2023/01/12 12:37:55;;;;;;;7.57;1.63;;;11.20;99.90;;;;;;5057001;28;20045;-82
2023/01/12 12:46:49;;;;;;;6.70;1.92;;;11.00;99.90;;;;;;5057361;28;20076;-85
2023/01/12 12:49:22;;;;;;;9.00;2.47;;;10.80;99.90;;;;;;5062946;28;20056;-82
2023/01/12 12:51:49;;;;;;;6.95;2.28;;;10.90;99.90;;;;;;5058551;28;20827;-84
2023/01/12 12:54:19;;;;;;;10.18;2.33;;;10.90;99.90;;;;;;5076800;28;20052;-81
2023/01/12 12:56:45;;;;;;;11.00;2.70;;;10.90;99.90;;;;;;5057466;28;20055;-82
2023/01/12 12:59:37;;;;;;;13.30;2.67;;;10.90;99.90;;;;;;5060577;28;20063;-82
2023/01/12 13:02:03;;;;;;;7.63;2.13;;;10.90;99.90;;;;;;5056376;28;20060;-85
2023/01/12 13:04:41;;;;;;;5.65;2.05;;;11.00;99.90;;;;;;5079303;28;20044;-87
2023/01/12 13:07:14;;;;;;;10.82;2.50;;;11.00;99.90;;;;;;5065436;28;20049;-83
2023/01/12 13:09:40;;;;;;;6.75;2.38;;;11.00;99.90;;;;;;5079331;28;20040;-84
2023/01/12 13:12:06;;;;;;;7.47;2.70;;;11.00;99.90;;;;;;5064890;28;20045;-80
2023/01/12 13:14:40;;;;;;;10.48;2.35;;;11.10;99.90;;;;;;5062198;28;20097;-84
2023/01/12 13:17:18;;;;;;;6.63;2.22;;;11.20;99.90;;;;;;5063065;28;20040;-82
2023/01/12 13:19:49;;;;;;;7.72;3.05;;;11.20;99.90;;;;;;5080636;28;20048;-81
2023/01/12 13:22:49;;;;;;;5.60;1.95;;;11.20;99.90;;;;;;5079959;28;20533;-85
2023/01/12 13:25:15;;;;;;;5.43;1.90;;;11.30;99.90;;;;;;5080828;28;20053;-83
2023/01/12 13:27:59;;;;;;;8.38;2.13;;;11.30;99.90;;;;;;5079838;28;20044;-79
2023/01/12 13:30:28;;;;;;;9.15;2.00;;;11.40;99.90;;;;;;5079800;28;20055;-84
2023/01/12 13:32:54;;;;;;;5.63;1.65;;;11.30;99.90;;;;;;5065149;28;20044;-83
2023/01/12 13:35:34;;;;;;;7.30;2.15;;;11.30;99.90;;;;;;5063056;28;20044;-83
2023/01/12 13:38:10;;;;;;;7.00;1.85;;;11.40;99.90;;;;;;5082117;28;20066;-80
2023/01/12 13:40:37;;;;;;;6.38;1.80;;;11.40;99.90;;;;;;5079891;28;20040;-83
2023/01/12 13:43:14;;;;;;;10.18;2.08;;;11.40;99.90;;;;;;5078756;28;20126;-85
2023/01/12 13:46:02;;;;;;;9.90;2.20;;;11.40;99.90;;;;;;5080425;28;20094;-81
2023/01/12 13:48:30;;;;;;;7.00;2.10;;;11.40;99.90;;;;;;5077391;28;20044;-82
2023/01/12 13:51:02;;;;;;;7.97;1.83;;;11.40;99.90;;;;;;5062522;28;20047;-82
2023/01/12 13:53:30;;;;;;;10.60;2.90;;;11.40;99.90;;;;;;5079056;28;20057;-79
2023/01/12 13:56:01;;;;;;;6.00;2.33;;;11.40;99.90;;;;;;5078039;28;20158;-82
2023/01/12 13:58:36;;;;;;;5.85;2.00;;;11.20;99.90;;;;;;5079548;28;20149;-84